Latest Weather Observations for Tarcoola

IDS60801

Issued at 11:31 am CST Wednesday 26 April 2017 (issued every 30 minutes, with the page automatically refreshed every 10 minutes)

About weather observations | Map of weather stations | Latest weather observations for SA | Other Formats
Station Details ID: 016098 Name: TARCOOLA AERO Lat: -30.71 Lon: 134.58 Height: 123.0 m
Data from the previous 72 hours. | See also: Recent months at Tarcoola
Date/Time
CST
Temp
°C
App
Temp
°C
Dew
Point
°C
Rel
Hum
%
Delta-T
°C
Wind Press
QNH
hPa
Press
MSL
hPa
Rain since
9am
mm
Dir  Spd
km/h
Gust
km/h
Spd
kts
Gust
kts
26/11:30am 16.6 11.7 7.0 53 4.8 S 22 30 12 16 1025.7 1025.4 0.0
26/11:00am 16.7 11.7 7.9 56 4.4 SSW 24 33 13 18 1025.8 1025.5 0.0
26/10:30am 16.1 11.0 7.6 57 4.3 SSW 24 32 13 17 1025.9 1025.6 0.0
26/10:00am 16.4 10.5 7.3 55 4.6 SSW 28 37 15 20 1026.0 1025.7 0.0
26/09:30am 15.5 11.6 8.7 64 3.5 S 19 26 10 14 1025.9 1025.6 0.0
26/09:00am 14.4 11.2 10.0 75 2.3 SSW 17 22 9 12 1025.7 1025.4 0.0
26/08:30am 13.5 10.9 10.7 83 1.5 SW 15 22 8 12 1025.2 1024.9 0.0
26/08:00am 12.4 10.9 10.6 89 0.9 WSW 9 15 5 8 1024.8 1024.5 0.0
26/07:30am 11.6 9.6 10.3 92 0.7 WSW 11 15 6 8 1024.5 1024.2 0.0
26/07:00am 11.5 9.1 10.2 92 0.7 WSW 13 15 7 8 1024.1 1023.8 0.0
26/06:30am 11.8 9.5 10.4 91 0.7 WSW 13 19 7 10 1023.9 1023.6 0.0
26/06:00am 11.9 9.2 10.5 91 0.7 WSW 15 19 8 10 1023.6 1023.3 0.0
26/05:30am 12.1 10.1 10.3 89 0.9 WSW 11 13 6 7 1023.2 1022.9 0.0
26/05:00am 12.8 11.0 10.7 87 1.1 WSW 11 13 6 7 1023.1 1022.8 0.0
26/04:30am 13.0 10.9 11.1 88 1.0 SW 13 17 7 9 1023.0 1022.7 0.0
26/04:00am 12.9 10.4 11.0 88 1.0 SW 15 22 8 12 1022.5 1022.2 0.0
26/03:30am 13.3 10.3 10.5 83 1.5 WSW 17 22 9 12 1022.4 1022.1 0.0
26/03:00am 13.5 10.0 10.3 81 1.7 WSW 19 26 10 14 1022.3 1022.0 0.0
26/02:30am 13.5 10.5 10.5 82 1.6 W 17 24 9 13 1021.9 1021.5 0.0
26/02:00am 12.7 10.7 10.2 85 1.3 W 11 15 6 8 1021.8 1021.4 0.0
26/01:30am 12.9 10.6 10.3 84 1.3 WSW 13 15 7 8 1021.7 1021.3 0.0
26/01:00am 13.1 10.7 10.1 82 1.6 WSW 13 17 7 9 1021.8 1021.4 0.0
26/12:30am 13.4 10.3 10.4 82 1.6 WSW 17 20 9 11 1021.7 1021.3 0.0
26/12:00am 12.8 10.5 10.3 85 1.3 W 13 17 7 9 1021.7 1021.3 0.0
 
Date/Time
CST
Temp
°C
App
Temp
°C
Dew
Point
°C
Rel
Hum
%
Delta-T
°C
Wind Press
QNH
hPa
Press
MSL
hPa
Rain since
9am
mm
Dir  Spd
km/h
Gust
km/h
Spd
kts
Gust
kts
25/11:30pm 13.0 10.6 10.2 83 1.4 WSW 13 15 7 8 1021.7 1021.3 0.0
25/11:00pm 13.3 10.9 9.9 80 1.8 WSW 13 15 7 8 1021.6 1021.2 0.0
25/10:30pm 12.4 10.2 9.4 82 1.5 W 11 13 6 7 1021.6 1021.2 0.0
25/10:00pm 12.7 11.2 9.2 79 1.8 WSW 7 9 4 5 1021.3 1020.9 0.0
25/09:30pm 13.3 11.2 8.4 72 2.4 WSW 9 11 5 6 1021.0 1020.6 0.0
25/09:00pm 14.1 12.1 8.5 69 2.8 W 9 11 5 6 1020.9 1020.5 0.0
25/08:30pm 14.0 11.8 7.8 66 3.1 SW 9 11 5 6 1020.7 1020.3 0.0
25/08:00pm 15.1 11.9 6.9 58 4.0 SW 13 15 7 8 1020.2 1019.9 0.0
25/07:30pm 16.4 11.9 6.0 50 5.1 SW 19 26 10 14 1019.8 1019.5 0.0
25/07:00pm 17.1 11.9 5.4 46 5.7 WSW 22 28 12 15 1019.4 1019.1 0.0
25/06:30pm 17.5 12.3 5.4 45 5.9 SW 22 32 12 17 1019.1 1018.8 0.0
25/06:00pm 18.3 12.4 5.8 44 6.1 SW 26 37 14 20 1019.0 1018.7 0.0
25/05:46pm 19.0 12.7 5.5 41 6.6 SW 28 46 15 25 1018.8 1018.5 0.0
25/05:30pm 19.3 13.8 7.4 46 6.1 SW 26 41 14 22 1018.7 1018.4 0.0
25/05:00pm 20.2 13.0 5.1 37 7.4 SW 32 41 17 22 1018.1 1017.8 0.0
25/04:30pm 20.0 13.2 7.1 43 6.6 SW 32 46 17 25 1018.0 1017.7 0.0
25/04:00pm 21.5 14.4 6.6 38 7.6 WSW 33 44 18 24 1017.8 1017.5 0.0
25/03:30pm 20.6 15.3 9.8 50 5.8 WSW 28 39 15 21 1017.6 1017.3 0.0
25/03:00pm 20.0 14.3 9.9 52 5.4 WSW 30 43 16 23 1017.6 1017.3 0.0
25/02:30pm 20.6 16.4 11.2 55 5.2 WSW 24 35 13 19 1017.7 1017.4 0.0
25/02:00pm 19.8 16.3 11.0 57 4.8 WSW 20 30 11 16 1018.1 1017.8 0.0
25/01:30pm 18.8 13.1 9.8 56 4.8 SW 30 43 16 23 1018.4 1018.1 0.0
25/01:00pm 19.5 15.3 12.3 63 4.0 SW 26 33 14 18 1018.7 1018.4 0.0
25/12:30pm 19.3 15.2 11.3 60 4.4 WSW 24 32 13 17 1018.9 1018.6 0.0
25/12:00pm 20.2 16.6 11.9 59 4.6 WSW 22 37 12 20 1019.3 1019.0 0.0
25/11:30am 19.8 16.3 12.3 62 4.2 WSW 22 32 12 17 1019.5 1019.2 0.0
25/11:00am 18.7 15.1 12.0 65 3.7 WSW 22 30 12 16 1019.7 1019.4 0.0
25/10:30am 18.3 15.3 12.7 70 3.1 WSW 20 28 11 15 1019.9 1019.6 0.0
25/10:00am 17.6 14.6 12.7 73 2.7 WSW 20 26 11 14 1020.1 1019.8 0.0
25/09:30am 16.8 15.1 13.5 81 1.9 WSW 15 20 8 11 1020.2 1019.9 0.0
25/09:00am 15.9 14.6 13.6 86 1.3 WSW 13 17 7 9 1020.0 1019.7 21.2
25/08:30am 14.9 14.6 13.4 91 0.8 WSW 7 11 4 6 1019.8 1019.5 21.2
25/08:00am 14.2 14.7 12.9 92 0.7 SW 2 7 1 4 1019.6 1019.3 21.2
25/07:30am 13.9 14.8 12.8 93 0.6 CALM 0 6 0 3 1019.2 1018.9 21.2
25/07:00am 13.8 13.3 12.7 93 0.6 SW 7 11 4 6 1019.0 1018.7 21.2
25/06:30am 13.7 13.2 12.6 93 0.6 SW 7 11 4 6 1018.6 1018.3 21.2
25/06:00am 13.7 13.2 12.6 93 0.6 SW 7 9 4 5 1018.4 1018.1 21.2
25/05:30am 13.9 13.1 12.8 93 0.6 SW 9 11 5 6 1018.0 1017.7 21.2
25/05:00am 13.7 12.4 12.6 93 0.6 WSW 11 15 6 8 1017.8 1017.5 21.2
25/04:30am 13.8 12.2 12.7 93 0.6 SW 13 15 7 8 1017.8 1017.5 21.2
25/04:00am 14.1 13.0 13.0 93 0.6 WSW 11 13 6 7 1017.7 1017.4 21.2
25/03:30am 14.2 13.1 13.1 93 0.6 WSW 11 15 6 8 1017.6 1017.3 21.2
25/03:00am 13.7 12.4 12.6 93 0.6 WSW 11 13 6 7 1017.4 1017.1 21.2
25/02:30am 13.7 12.8 12.6 93 0.6 WSW 9 9 5 5 1017.5 1017.2 21.2
25/02:00am 14.0 12.8 12.9 93 0.6 SW 11 13 6 7 1017.4 1017.1 21.0
25/01:30am 14.0 13.1 12.7 92 0.7 WSW 9 11 5 6 1017.5 1017.2 21.0
25/01:00am 14.4 13.7 13.1 92 0.7 WSW 9 11 5 6 1017.7 1017.4 21.0
25/12:30am 14.9 13.9 13.4 91 0.8 SW 11 15 6 8 1017.7 1017.4 21.0
25/12:00am 15.3 14.0 13.8 91 0.8 SW 13 17 7 9 1017.8 1017.5 21.0
 
Date/Time
CST
Temp
°C
App
Temp
°C
Dew
Point
°C
Rel
Hum
%
Delta-T
°C
Wind Press
QNH
hPa
Press
MSL
hPa
Rain since
9am
mm
Dir  Spd
km/h
Gust
km/h
Spd
kts
Gust
kts
24/11:30pm 15.8 14.3 14.3 91 0.9 SW 15 19 8 10 1017.7 1017.4 21.0
24/11:00pm 16.2 15.3 14.9 92 0.8 SW 13 15 7 8 1017.8 1017.5 21.0
24/10:30pm 16.3 16.2 15.0 92 0.8 WSW 9 11 5 6 1018.0 1017.7 21.0
24/10:00pm 16.7 16.4 15.4 92 0.8 SW 11 13 6 7 1018.1 1017.8 21.0
24/09:30pm 16.8 16.1 15.3 91 0.9 WSW 13 17 7 9 1018.1 1017.8 21.0
24/09:00pm 17.1 16.9 15.6 91 0.9 WSW 11 15 6 8 1018.1 1017.8 21.0
24/08:30pm 17.1 17.3 15.8 92 0.8 WSW 9 11 5 6 1018.2 1017.9 21.0
24/08:00pm 17.0 17.6 15.7 92 0.8 WSW 7 9 4 5 1018.2 1017.9 21.0
24/07:30pm 17.2 17.8 15.7 91 0.9 WSW 7 9 4 5 1017.9 1017.6 21.0
24/07:00pm 17.1 18.6 15.6 91 0.9 WSW 2 7 1 4 1017.3 1017.0 21.0
24/06:30pm 17.2 17.0 15.7 91 0.9 SW 11 13 6 7 1017.3 1017.0 20.8
24/06:00pm 17.3 17.1 15.6 90 1.0 SW 11 15 6 8 1016.9 1016.6 20.8
24/05:30pm 17.4 18.0 15.7 90 1.0 SW 7 11 4 6 1016.6 1016.3 20.8
24/05:00pm 17.4 17.2 15.6 89 1.1 SW 11 15 6 8 1016.3 1016.0 20.8
24/04:30pm 17.5 17.7 15.8 90 1.0 SW 9 11 5 6 1016.4 1016.1 20.8
24/04:00pm 17.4 17.7 16.1 92 0.8 SSW 9 11 5 6 1015.9 1015.6 20.8
24/03:30pm 17.1 18.6 15.8 92 0.8 SW 2 7 1 4 1016.0 1015.7 20.8
24/03:00pm 16.9 15.9 15.6 92 0.8 SW 15 20 8 11 1016.1 1015.8 20.0
24/02:30pm 17.1 16.9 15.8 92 0.8 SW 11 15 6 8 1016.5 1016.2 19.6
24/02:00pm 17.0 16.8 15.7 92 0.8 SW 11 15 6 8 1016.6 1016.3 18.2
24/01:30pm 17.0 16.8 15.7 92 0.8 SSW 11 15 6 8 1016.8 1016.5 16.8
24/01:00pm 16.9 17.0 15.6 92 0.8 SSW 9 11 5 6 1016.9 1016.6 15.2
24/12:30pm 17.0 17.5 15.5 91 0.9 SSW 7 11 4 6 1017.5 1017.2 12.6
24/12:00pm 16.9 17.5 15.4 91 0.9 SW 6 7 3 4 1018.0 1017.7 10.8
24/11:30am 16.9 17.0 15.6 92 0.8 SE 9 11 5 6 1017.7 1017.4 9.8
24/11:00am 16.8 17.5 15.5 92 0.8 SSW 6 7 3 4 1018.6 1018.3 7.2
24/10:30am 16.8 16.5 15.5 92 0.8 SE 11 15 6 8 1018.5 1018.2 5.8
24/10:00am 16.7 17.1 15.4 92 0.8 SSE 7 11 4 6 1019.0 1018.7 4.2
24/09:30am 16.6 16.6 15.3 92 0.8 SSE 9 11 5 6 1018.7 1018.4 3.6
24/09:00am 16.6 17.0 15.3 92 0.8 SW 7 11 4 6 1019.1 1018.8 6.4
24/08:30am 16.9 17.3 15.2 90 1.0 SSW 7 9 4 5 1018.9 1018.6 1.8
24/08:00am 16.7 17.2 15.1 90 0.9 S 6 7 3 4 1018.4 1018.1 1.8
24/07:30am 16.6 16.6 15.1 91 0.9 S 9 13 5 7 1018.2 1017.9 1.8
24/07:00am 16.5 16.4 15.0 91 0.9 SSW 9 13 5 7 1018.3 1018.0 1.6
24/06:30am 16.6 16.1 15.0 90 0.9 S 11 15 6 8 1017.9 1017.6 1.6
24/06:00am 16.6 17.8 14.8 89 1.0 SSW 2 9 1 5 1018.0 1017.7 1.4
24/05:30am 16.7 16.3 15.1 90 0.9 S 11 15 6 8 1017.8 1017.5 1.4
24/05:00am 16.7 15.9 15.1 90 0.9 SW 13 17 7 9 1018.3 1018.0 1.4
24/04:30am 16.8 16.4 15.2 90 0.9 SW 11 15 6 8 1018.3 1018.0 1.4
24/04:00am 16.8 16.3 14.8 88 1.2 SSW 11 13 6 7 1018.1 1017.8 1.4
24/03:30am 17.5 17.4 15.0 85 1.5 W 9 11 5 6 1018.7 1018.4 0.8
24/03:00am 18.4 18.1 14.5 78 2.3 WSW 9 11 5 6 1018.5 1018.2 0.0
24/02:30am 18.8 18.6 13.6 72 3.0 SSW 7 9 4 5 1018.2 1017.9 0.0
24/02:00am 18.9 18.5 14.0 73 2.8 S 9 15 5 8 1018.1 1017.8 0.0
24/01:30am 19.1 18.7 14.1 73 2.9 S 9 13 5 7 1018.6 1018.3 0.0
24/01:00am 19.8 18.7 14.2 70 3.3 SSE 13 19 7 10 1018.9 1018.6 0.0
24/12:30am 18.9 20.2 16.1 84 1.7 SSW 4 11 2 6 1019.1 1018.8 0.0
24/12:00am 19.1 21.4 16.7 86 1.4 CALM 0 0 0 0 1019.4 1019.1 0.0
 
Date/Time
CST
Temp
°C
App
Temp
°C
Dew
Point
°C
Rel
Hum
%
Delta-T
°C
Wind Press
QNH
hPa
Press
MSL
hPa
Rain since
9am
mm
Dir  Spd
km/h
Gust
km/h
Spd
kts
Gust
kts
23/11:30pm 19.2 21.4 16.4 84 1.7 CALM 0 0 0 0 1019.6 1019.3 0.0
23/11:00pm 19.1 21.4 16.7 86 1.5 CALM 0 0 0 0 1020.0 1019.7 0.0
23/10:30pm 19.2 21.4 16.6 85 1.6 CALM 0 0 0 0 1020.0 1019.7 0.0
23/10:00pm 19.1 20.9 15.6 80 2.1 CALM 0 0 0 0 1020.1 1019.8 0.0
23/09:30pm 19.3 21.1 15.6 79 2.2 CALM 0 0 0 0 1020.1 1019.8 0.0
23/09:00pm 19.4 21.1 15.3 77 2.4 CALM 0 0 0 0 1020.1 1019.8 0.0
23/08:30pm 19.3 21.1 15.6 79 2.2 CALM 0 0 0 0 1020.0 1019.7 0.0
23/08:00pm 19.3 19.6 15.0 76 2.5 SE 7 7 4 4 1019.9 1019.6 0.0
23/07:30pm 20.0 20.2 14.6 71 3.2 ESE 7 7 4 4 1019.7 1019.4 0.0
23/07:00pm 21.0 20.6 14.2 65 4.0 ESE 9 9 5 5 1019.5 1019.2 0.0
23/06:30pm 21.6 21.7 14.5 64 4.2 ESE 7 9 4 5 1019.3 1019.0 0.0
23/06:00pm 22.5 22.3 13.6 57 5.2 ESE 7 9 4 5 1019.2 1018.9 0.0
23/05:30pm 23.5 22.6 12.5 50 6.3 ESE 9 13 5 7 1019.1 1018.8 0.0
23/05:00pm 24.4 23.1 12.4 47 6.9 ESE 11 17 6 9 1019.0 1018.7 0.0
23/04:30pm 24.2 23.7 12.8 49 6.6 ESE 7 13 4 7 1019.1 1018.8 0.0
23/04:00pm 24.2 22.7 11.9 46 7.0 ESE 11 15 6 8 1019.3 1019.0 0.0
23/03:30pm 24.9 23.4 13.1 48 6.9 ESE 13 22 7 12 1019.1 1018.8 0.0
23/03:00pm 24.8 22.8 12.7 47 7.0 ESE 15 22 8 12 1019.1 1018.8 0.0
23/02:30pm 24.2 23.2 14.6 55 5.7 ESE 13 19 7 10 1019.7 1019.4 0.0
23/02:00pm 23.9 22.9 14.6 56 5.5 E 13 19 7 10 1020.0 1019.7 0.0
23/01:30pm 23.4 23.4 15.2 60 4.9 E 9 13 5 7 1020.2 1019.9 0.0
23/01:00pm 23.2 23.1 15.0 60 4.9 E 9 13 5 7 1020.8 1020.4 0.0
23/12:30pm 23.3 22.9 15.1 60 4.9 E 11 17 6 9 1021.2 1020.8 0.0
23/12:00pm 23.0 23.5 15.1 61 4.7 SE 6 15 3 8 1021.5 1021.1 0.0

Other Formats:

Comma delimited format used in spreadsheet applications
http://www.bom.gov.au/fwo/IDS60801/IDS60801.94655.axf

JavaScript Object Notation format (JSON) in row-major order
http://www.bom.gov.au/fwo/IDS60801/IDS60801.94655.json